Time;durP1;ratioP1;P1;durP2;ratioP2;P2;SDS_P1;SDS_P2;PMS_P1;PMS_P2;Temp;Humidity;BMP_temperature;BMP_pressure;BME280_temperature;BME280_humidity;BME280_pressure;Samples;Min_cycle;Max_cycle;Signal;HPM_P1;HPM_P2
2022/12/15 00:40:10;;;;;;;29.73;13.65;;;;;;;-144.47;94.18;63512.63;5008577;28;20115;-67
2022/12/15 00:42:36;;;;;;;27.80;14.43;;;;;;;-144.47;94.19;63492.69;5004267;28;20034;-66
2022/12/15 00:45:02;;;;;;;34.58;15.23;;;;;;;-144.47;94.24;63482.75;4997864;28;20026;-68
2022/12/15 00:47:27;;;;;;;44.50;17.15;;;;;;;-144.47;94.03;63482.75;5002706;28;20105;-66
2022/12/15 01:20:17;;;;;;;31.73;14.13;;;;;;;-144.47;93.75;63626.19;4989449;28;20036;-68
2022/12/15 01:22:50;;;;;;;21.02;11.23;;;;;;;-144.47;93.50;63572.41;5003172;28;20662;-66
2022/12/15 01:25:17;;;;;;;30.33;14.77;;;;;;;-144.47;93.75;63602.28;4999613;28;20081;-66
2022/12/15 01:27:43;;;;;;;22.30;12.88;;;;;;;-144.47;93.82;63604.28;4988398;28;20027;-68
2022/12/15 01:30:12;;;;;;;33.45;12.07;;;;;;;-144.47;93.47;63602.28;4997789;28;20536;-67
2022/12/15 01:32:37;;;;;;;22.25;12.73;;;;;;;-144.47;92.79;63532.56;4992167;28;20731;-68
2022/12/15 01:35:04;;;;;;;39.88;14.50;;;;;;;-144.47;92.32;63504.66;4992589;28;20029;-67
2022/12/15 01:37:29;;;;;;;26.38;12.60;;;;;;;-144.47;92.13;63474.78;5005253;28;20377;-68
2022/12/15 01:42:39;;;;;;;29.70;13.60;;;;;;;-144.47;92.72;63550.47;5006537;28;20096;-66
2022/12/15 01:45:22;;;;;;;36.42;13.13;;;;;;;-144.47;92.88;63588.34;5008141;28;20034;-69
2022/12/15 01:47:53;;;;;;;31.42;13.70;;;;;;;-144.47;92.56;63562.44;4987513;28;20110;-66
2022/12/15 01:50:20;;;;;;;25.20;11.73;;;;;;;-144.47;92.42;63536.53;5002074;28;20140;-68
2022/12/15 01:52:46;;;;;;;31.30;13.70;;;;;;;-144.47;92.21;63502.66;4988725;28;20022;-68
2022/12/15 01:55:12;;;;;;;27.85;13.32;;;;;;;-144.47;92.28;63518.59;5001622;28;20129;-69
2022/12/15 01:57:38;;;;;;;28.10;12.88;;;;;;;-144.47;91.99;63480.75;4995775;28;20416;-70
2022/12/15 02:00:07;;;;;;;22.98;12.15;;;;;;;-144.47;91.94;63474.78;4993614;28;20130;-67
2022/12/15 02:02:35;;;;;;;26.85;11.52;;;;;;;-144.47;91.83;63480.75;4998949;28;20022;-67
2022/12/15 02:05:02;;;;;;;30.77;13.13;;;;;;;-144.47;91.91;63520.59;4992373;28;20035;-66
2022/12/15 02:07:28;;;;;;;30.42;12.00;;;;;;;-144.47;92.24;63538.53;5006333;28;20048;-71
2022/12/15 02:09:58;;;;;;;24.98;11.25;;;;;;;-144.47;92.12;63510.63;5008931;28;20049;-68
2022/12/15 02:12:42;;;;;;;21.90;12.45;;;;;;;-144.47;91.71;63506.66;4996627;28;20156;-69
2022/12/15 02:15:36;;;;;;;21.15;10.15;;;;;;;-144.47;91.98;63530.56;4999375;28;20038;-69
2022/12/15 02:18:16;;;;;;;22.83;11.50;;;;;;;-144.47;92.47;63598.31;4987731;28;20028;-67
2022/12/15 02:20:44;;;;;;;30.95;12.82;;;;;;;-144.47;92.31;63612.25;4993810;28;20030;-71
2022/12/15 02:23:27;;;;;;;19.23;11.95;;;;;;;-144.47;93.18;63630.19;4994996;28;20034;-67
2022/12/15 02:26:29;;;;;;;20.70;10.35;;;;;;;-144.47;92.92;63648.13;5007378;28;20046;-66
2022/12/15 02:29:16;;;;;;;26.63;11.45;;;;;;;-144.47;93.16;63672.03;4988521;28;20028;-68
2022/12/15 02:31:50;;;;;;;25.40;11.55;;;;;;;-144.47;93.31;63721.84;4987317;28;20030;-68
2022/12/15 02:34:26;;;;;;;25.27;11.23;;;;;;;-144.47;93.44;63741.75;4987809;28;20133;-69
2022/12/15 02:37:00;;;;;;;24.88;11.50;;;;;;;-144.47;93.88;63783.59;4991284;28;20049;-65
2022/12/15 02:39:26;;;;;;;31.60;13.75;;;;;;;-144.47;93.74;63749.72;5003240;28;20031;-69
2022/12/15 02:41:52;;;;;;;23.45;11.52;;;;;;;-144.47;93.93;63791.56;4992317;28;20543;-69
2022/12/15 02:44:19;;;;;;;33.60;12.27;;;;;;;-144.47;93.77;63793.56;4992892;28;20022;-69
2022/12/15 02:46:55;;;;;;;24.63;12.30;;;;;;;-144.47;93.43;63727.81;4996130;28;20033;-69
2022/12/15 02:49:34;;;;;;;46.67;12.73;;;;;;;-144.47;92.92;63743.75;5000439;28;20228;-67
2022/12/15 02:52:24;;;;;;;23.38;11.73;;;;;;;-144.47;92.64;63715.84;5000359;28;20026;-68
2022/12/15 02:55:08;;;;;;;25.33;10.70;;;;;;;-144.47;92.49;63737.78;4987318;28;20123;-67
2022/12/15 02:57:45;;;;;;;26.20;12.73;;;;;;;-144.47;93.11;63777.63;4986877;28;20025;-67
2022/12/15 03:00:12;;;;;;;24.10;13.55;;;;;;;-144.47;92.89;63741.75;5003194;28;20091;-69
2022/12/15 03:02:43;;;;;;;22.52;10.50;;;;;;;-144.47;92.85;63793.56;4996382;28;20037;-68
2022/12/15 03:05:10;;;;;;;25.00;12.38;;;;;;;-144.47;92.69;63779.63;4999574;28;20022;-67
2022/12/15 03:07:36;;;;;;;26.40;11.95;;;;;;;-144.47;92.99;63809.50;5002445;28;20036;-67
2022/12/15 03:10:04;;;;;;;28.50;12.98;;;;;;;-144.47;92.87;63781.63;4998121;28;20034;-68
2022/12/15 03:12:30;;;;;;;24.00;10.57;;;;;;;-144.47;92.95;63793.56;4991360;28;20054;-68
2022/12/15 03:14:55;;;;;;;26.20;12.98;;;;;;;-144.47;93.11;63801.53;5002147;28;20135;-66
2022/12/15 03:17:20;;;;;;;22.00;10.93;;;;;;;-144.47;93.93;63881.25;4998054;28;20033;-70
2022/12/15 03:19:46;;;;;;;27.05;13.10;;;;;;;-144.47;94.00;63895.19;5007891;28;20037;-68
2022/12/15 03:22:11;;;;;;;27.02;12.90;;;;;;;-144.47;93.88;63903.16;5000583;28;20036;-69
2022/12/15 03:24:36;;;;;;;22.88;11.45;;;;;;;-144.47;93.85;63871.28;5005575;28;20105;-69
2022/12/15 03:27:03;;;;;;;23.55;11.52;;;;;;;-144.47;93.88;63893.19;4989699;28;20117;-69
2022/12/15 03:29:28;;;;;;;24.20;10.30;;;;;;;-144.47;93.26;63841.38;5008195;28;20036;-68
2022/12/15 03:31:53;;;;;;;31.85;11.95;;;;;;;-144.47;93.50;63873.28;5027220;22;20097;-65
2022/12/15 03:34:19;;;;;;;35.47;12.90;;;;;;;-144.47;93.53;63871.28;5031369;28;20076;-69
2022/12/15 03:36:44;;;;;;;28.73;13.27;;;;;;;-144.47;93.19;63857.34;5034607;28;20045;-68
2022/12/15 03:39:10;;;;;;;34.42;10.93;;;;;;;-144.47;92.56;63791.56;5041295;28;20079;-67
2022/12/15 03:41:35;;;;;;;26.15;13.35;;;;;;;-144.47;92.33;63799.53;5034984;28;20029;-66
2022/12/15 03:44:01;;;;;;;32.33;12.77;;;;;;;-144.47;92.29;63777.63;5014950;28;20038;-67
2022/12/15 03:46:26;;;;;;;21.17;11.60;;;;;;;-144.47;92.10;63753.72;4997176;28;20449;-68
2022/12/15 03:48:52;;;;;;;27.75;12.63;;;;;;;-144.47;91.74;63715.84;5013718;28;20045;-69
2022/12/15 03:51:18;;;;;;;23.77;11.43;;;;;;;-144.47;91.27;63729.81;5015029;28;20109;-69
2022/12/15 03:53:46;;;;;;;23.83;13.68;;;;;;;-144.47;91.15;63737.78;5020331;28;20146;-70
2022/12/15 03:56:12;;;;;;;26.35;10.73;;;;;;;-144.47;91.16;63701.91;5011945;28;20028;-69
2022/12/15 03:58:37;;;;;;;21.80;11.38;;;;;;;-144.47;91.09;63725.81;5017500;28;20026;-68
2022/12/15 04:01:24;;;;;;;31.15;11.45;;;;;;;-144.47;90.97;63729.81;5014023;28;20109;-67
2022/12/15 04:03:49;;;;;;;23.55;12.35;;;;;;;-144.47;91.07;63713.88;5020332;28;20509;-67
2022/12/15 04:06:14;;;;;;;29.45;12.13;;;;;;;-144.47;91.06;63731.81;5015275;28;20586;-68
2022/12/15 04:08:40;;;;;;;21.08;11.60;;;;;;;-144.47;91.18;63765.66;5021947;28;20100;-68
2022/12/15 04:11:05;;;;;;;22.67;10.35;;;;;;;-144.47;91.07;63715.84;5022144;28;20040;-66
2022/12/15 04:13:30;;;;;;;23.08;13.23;;;;;;;-144.47;90.85;63735.78;5013663;28;20030;-69
2022/12/15 04:15:56;;;;;;;31.73;12.00;;;;;;;-144.47;90.22;63705.91;5028857;28;20037;-67
2022/12/15 04:18:21;;;;;;;27.83;11.20;;;;;;;-144.47;90.40;63701.91;5013680;28;20426;-67
2022/12/15 04:20:46;;;;;;;28.88;11.52;;;;;;;-144.47;90.52;63733.78;5013355;28;20029;-66
2022/12/15 04:23:12;;;;;;;32.78;13.00;;;;;;;-144.47;90.59;63727.81;5012697;28;20037;-67
2022/12/15 05:31:51;;;;;;;20.20;12.15;;;;;;;-144.47;92.16;64102.44;5013014;28;20060;-67
2022/12/15 05:34:26;;;;;;;20.42;9.63;;;;;;;-144.47;92.15;64158.22;5014482;28;20097;-70
2022/12/15 05:36:56;;;;;;;22.05;11.23;;;;;;;-144.47;92.15;64106.41;5011341;28;20027;-66
2022/12/15 05:39:23;;;;;;;26.77;10.40;;;;;;;-144.47;92.07;64102.44;5018662;28;20083;-64
2022/12/15 05:41:49;;;;;;;27.67;10.30;;;;;;;-144.47;92.16;64080.50;5027218;28;20117;-71
2022/12/15 05:44:16;;;;;;;26.08;11.48;;;;;;;-144.47;92.29;64122.34;5010522;28;20058;-70
2022/12/15 05:46:42;;;;;;;20.25;10.55;;;;;;;-144.47;92.38;64114.38;5019770;28;20154;-67
2022/12/15 05:49:13;;;;;;;22.38;10.15;;;;;;;-144.47;92.47;64124.34;5012570;28;20028;-71
2022/12/15 05:51:40;;;;;;;23.80;10.82;;;;;;;-144.47;92.58;64118.38;5011440;28;20069;-70
2022/12/15 05:54:10;;;;;;;23.50;10.52;;;;;;;-144.47;92.48;64162.22;5011514;28;20030;-67
2022/12/15 05:56:37;;;;;;;24.65;11.30;;;;;;;-144.47;92.48;64134.31;5021311;28;20030;-67
2022/12/15 05:59:03;;;;;;;17.38;10.63;;;;;;;-144.47;92.30;64124.34;5015033;28;20088;-67
2022/12/15 06:01:30;;;;;;;22.50;9.63;;;;;;;-144.47;92.51;64126.34;5012639;28;20061;-66
2022/12/15 06:03:56;;;;;;;18.48;9.65;;;;;;;-144.47;93.02;64216.00;5013643;28;20502;-70
2022/12/15 06:06:21;;;;;;;21.08;9.57;;;;;;;-144.47;93.54;64255.88;5020478;28;20533;-67
2022/12/15 06:08:46;;;;;;;21.55;10.75;;;;;;;-144.47;93.68;64267.84;5015293;28;20021;-66
2022/12/15 06:11:14;;;;;;;27.17;9.65;;;;;;;-144.47;93.75;64291.75;5023226;28;20104;-70
2022/12/15 06:13:40;;;;;;;19.05;9.55;;;;;;;-144.47;93.61;64271.81;5005264;28;20026;-68
2022/12/15 06:16:10;;;;;;;20.95;9.98;;;;;;;-144.47;93.58;64249.91;5015222;28;20026;-68
2022/12/15 06:18:38;;;;;;;24.08;9.88;;;;;;;-144.47;93.36;64259.84;5002608;28;20036;-70
2022/12/15 06:21:09;;;;;;;27.03;11.80;;;;;;;-144.47;93.11;64245.91;5009611;28;20036;-69
2022/12/15 06:23:35;;;;;;;18.02;10.68;;;;;;;-144.47;93.08;64255.88;5009864;28;20261;-66
2022/12/15 06:26:16;;;;;;;23.38;10.98;;;;;;;-144.47;93.13;64283.78;5010815;28;20018;-69
2022/12/15 06:28:41;;;;;;;23.85;10.57;;;;;;;-144.47;93.04;64311.66;5018977;28;20087;-69
2022/12/15 06:31:08;;;;;;;18.38;9.70;;;;;;;-144.47;93.59;64337.56;5010260;28;20025;-66
2022/12/15 06:33:35;;;;;;;16.90;9.55;;;;;;;-144.47;93.77;64351.53;5009525;28;20030;-70
2022/12/15 06:36:06;;;;;;;26.67;11.20;;;;;;;-144.47;93.97;64357.50;5009411;28;20026;-70
2022/12/15 06:38:32;;;;;;;17.35;9.52;;;;;;;-144.47;93.83;64355.50;4997945;28;20026;-68
2022/12/15 06:40:59;;;;;;;22.63;11.15;;;;;;;-144.47;93.47;64297.72;5020560;28;20092;-66
2022/12/15 06:43:25;;;;;;;21.77;10.10;;;;;;;-144.47;93.38;64279.78;5013736;28;20118;-69
2022/12/15 06:45:51;;;;;;;30.48;11.80;;;;;;;-144.47;93.09;64214.03;5009772;28;20188;-69
2022/12/15 06:48:17;;;;;;;18.45;9.07;;;;;;;-144.47;92.81;64120.38;5008718;28;20510;-67
2022/12/15 06:50:44;;;;;;;19.92;9.45;;;;;;;-144.47;92.81;64064.56;5010965;28;20037;-69
2022/12/15 06:53:10;;;;;;;23.15;11.00;;;;;;;-144.47;92.53;63947.00;5013785;28;20437;-72
2022/12/15 06:55:35;;;;;;;24.75;11.85;;;;;;;-144.47;92.26;63807.50;5013919;28;20464;-67
2022/12/15 06:58:01;;;;;;;21.65;10.35;;;;;;;-144.47;92.17;63666.03;5014321;28;20094;-71
2022/12/15 07:00:26;;;;;;;19.27;9.27;;;;;;;-144.47;91.47;63488.72;5016177;28;20041;-70
2022/12/15 07:02:52;;;;;;;22.45;10.57;;;;;;;-144.47;91.34;63325.34;5015226;28;20021;-72
2022/12/15 07:05:18;;;;;;;19.63;9.18;;;;;;;-144.47;91.67;63179.91;5013510;28;20042;-67
2022/12/15 07:07:44;;;;;;;32.90;12.10;;;;;;;-144.47;92.21;63072.34;5017654;28;20116;-68
2022/12/15 07:10:10;;;;;;;18.60;9.48;;;;;;;-144.47;92.35;62952.81;5013164;28;20025;-69
2022/12/15 07:12:35;;;;;;;14.02;7.88;;;;;;;-144.47;92.27;62763.56;5011301;28;20113;-69
2022/12/15 07:15:01;;;;;;;17.13;10.35;;;;;;;-144.47;92.42;62630.13;5013466;28;20113;-69
2022/12/15 07:17:27;;;;;;;20.55;9.48;;;;;;;-144.47;92.56;62534.50;5012720;28;20476;-66
2022/12/15 07:19:53;;;;;;;17.15;9.50;;;;;;;-144.47;92.59;62430.94;5012833;28;20034;-71
2022/12/15 07:22:20;;;;;;;22.17;10.18;;;;;;;-144.47;92.24;62333.34;5012748;28;20109;-71
2022/12/15 07:24:46;;;;;;;20.88;11.30;;;;;;;-144.47;92.14;62181.97;5014243;28;20026;-68
2022/12/15 07:27:11;;;;;;;21.63;9.98;;;;;;;-144.47;92.68;62086.38;5015984;28;20028;-69
2022/12/15 07:29:37;;;;;;;26.98;10.48;;;;;;;-144.47;92.61;61941.00;5024483;28;20499;-65
2022/12/15 07:32:02;;;;;;;23.17;11.95;;;;;;;-144.47;93.53;61811.56;5015995;28;20650;-68
2022/12/15 07:34:27;;;;;;;25.05;12.88;;;;;;;-144.47;94.33;61658.22;5010704;28;20256;-68
2022/12/15 07:36:53;;;;;;;27.02;10.57;;;;;;;-144.47;94.88;61411.31;5008684;28;20045;-72
2022/12/15 07:39:18;;;;;;;25.70;11.38;;;;;;;-144.47;94.49;61246.03;5013105;28;20396;-70
2022/12/15 07:41:44;;;;;;;24.00;10.93;;;;;;;-144.47;93.84;61269.94;5011635;28;20037;-66
2022/12/15 07:44:09;;;;;;;29.00;12.88;;;;;;;-144.47;93.88;60911.56;5012061;28;20129;-69
2022/12/15 07:46:34;;;;;;;25.80;11.25;;;;;;;-144.47;93.88;60742.34;5012263;28;20083;-67
2022/12/15 07:49:00;;;;;;;22.50;11.85;;;;;;;-144.47;93.88;60662.69;5012245;28;20034;-70
2022/12/15 07:51:26;;;;;;;27.52;11.00;;;;;;;-144.47;93.68;60694.56;5012791;28;20030;-68
2022/12/15 07:53:51;;;;;;;31.92;12.05;;;;;;;-144.47;93.75;60602.97;5012357;28;20380;-71
2022/12/15 07:56:18;;;;;;;23.17;11.55;;;;;;;-144.47;93.75;60581.09;5013010;28;20125;-68
2022/12/15 07:58:44;;;;;;;40.28;12.50;;;;;;;-144.47;94.07;60491.50;5013120;28;20426;-67
2022/12/15 08:01:11;;;;;;;25.98;11.73;;;;;;;-144.47;94.22;60503.44;5013759;28;20102;-67
2022/12/15 08:03:37;;;;;;;30.33;13.60;;;;;;;-144.47;94.00;60640.81;5013804;28;20040;-70
2022/12/15 08:06:05;;;;;;;42.58;14.85;;;;;;;-144.47;93.66;60688.59;5014875;28;20022;-68
2022/12/15 08:08:31;;;;;;;36.85;12.85;;;;;;;-144.47;93.64;60730.38;5015814;28;20590;-70
2022/12/15 08:10:56;;;;;;;40.08;14.27;;;;;;;-144.47;93.65;60583.06;5013278;28;20030;-67
2022/12/15 08:13:22;;;;;;;35.00;15.13;;;;;;;-144.47;93.55;60517.38;5011394;28;20701;-68
2022/12/15 08:15:51;;;;;;;27.30;14.90;;;;;;;-144.47;93.75;60497.47;5014178;28;21915;-71
2022/12/15 08:18:17;;;;;;;26.05;13.38;;;;;;;-144.47;93.59;60284.50;5012803;28;20109;-66
2022/12/15 08:20:42;;;;;;;38.15;11.77;;;;;;;-144.47;93.46;60230.75;5014025;28;20098;-70
2022/12/15 08:23:08;;;;;;;24.88;11.60;;;;;;;-144.47;93.29;60216.81;5013600;28;20040;-68
2022/12/15 08:25:33;;;;;;;22.15;11.75;;;;;;;-144.47;93.11;60161.06;5014214;28;20026;-66
2022/12/15 08:27:59;;;;;;;30.35;12.13;;;;;;;-144.47;93.13;60188.94;5020383;28;20750;-71
2022/12/15 08:30:24;;;;;;;28.25;11.70;;;;;;;-144.47;93.11;60190.94;5024040;28;20116;-69
2022/12/15 08:32:50;;;;;;;24.25;10.73;;;;;;;-144.47;93.18;60171.03;5011645;28;20029;-70
2022/12/15 08:35:15;;;;;;;33.67;13.45;;;;;;;-144.47;93.06;60184.97;5014719;28;20030;-67
2022/12/15 08:37:41;;;;;;;28.80;13.57;;;;;;;-144.47;93.01;60125.25;5012739;28;20030;-71
2022/12/15 08:40:08;;;;;;;29.95;11.40;;;;;;;-144.47;92.97;60153.13;5013612;28;20068;-66
2022/12/15 08:42:34;;;;;;;21.15;10.77;;;;;;;-144.47;92.64;60107.34;5013080;28;20056;-66
2022/12/15 08:45:00;;;;;;;26.65;11.48;;;;;;;-144.47;92.43;60101.38;5013651;28;20029;-69
2022/12/15 08:47:25;;;;;;;30.83;13.23;;;;;;;-144.47;92.17;60198.91;5013386;28;20345;-68
2022/12/15 08:49:53;;;;;;;25.73;11.85;;;;;;;-144.47;92.22;60218.81;5012752;28;20475;-69
2022/12/15 08:52:18;;;;;;;32.25;13.05;;;;;;;-144.47;91.96;60374.06;5014158;28;20034;-68
2022/12/15 08:54:43;;;;;;;21.20;10.80;;;;;;;-144.47;91.89;60473.59;5013385;28;20064;-68
2022/12/15 08:57:09;;;;;;;24.63;12.32;;;;;;;-144.47;91.77;60399.94;5011471;28;20136;-69
2022/12/15 08:59:34;;;;;;;25.75;12.13;;;;;;;-144.47;91.57;60384.00;5012935;28;20599;-68
2022/12/15 09:02:00;;;;;;;28.92;13.55;;;;;;;-144.47;91.35;60244.69;5012101;28;20484;-67
2022/12/15 09:04:25;;;;;;;25.73;11.43;;;;;;;-144.47;91.35;60033.69;5010311;28;20049;-67
2022/12/15 09:06:51;;;;;;;38.35;11.50;;;;;;;-144.47;91.07;60015.78;5010870;28;20029;-69
2022/12/15 09:09:16;;;;;;;28.65;13.38;;;;;;;-144.47;90.71;60037.69;5013931;28;20034;-68
2022/12/15 09:11:41;;;;;;;25.60;11.45;;;;;;;-144.47;90.05;59991.91;5010277;28;20374;-70
2022/12/15 09:14:07;;;;;;;30.63;12.38;;;;;;;-144.47;89.48;59985.94;5010617;28;20026;-68
2022/12/15 09:16:32;;;;;;;23.23;9.68;;;;;;;-144.47;88.71;59973.97;5011165;28;20091;-65
2022/12/15 09:18:58;;;;;;;21.85;11.13;;;;;;;-144.47;88.66;59928.22;5009970;28;20029;-69
2022/12/15 09:21:27;;;;;;;27.42;11.25;;;;;;;-144.47;88.45;59916.25;5011573;28;20036;-67
2022/12/15 09:23:56;;;;;;;24.70;12.48;;;;;;;-144.47;88.33;59932.19;5011922;28;20478;-67
2022/12/15 09:26:22;;;;;;;26.05;12.70;;;;;;;-144.47;88.01;59962.03;5010436;28;20033;-70
2022/12/15 09:28:49;;;;;;;22.33;10.30;;;;;;;-144.47;87.96;59940.16;5018181;28;20026;-72
2022/12/15 09:31:20;;;;;;;19.75;9.98;;;;;;;-144.47;88.31;59926.22;5021374;28;20040;-68
2022/12/15 09:33:46;;;;;;;25.50;11.48;;;;;;;-144.47;88.49;59922.22;5033511;23;20049;-68
2022/12/15 09:36:12;;;;;;;20.55;10.48;;;;;;;-144.47;88.03;59894.38;5030166;28;20140;-70
2022/12/15 09:38:39;;;;;;;27.77;11.88;;;;;;;-144.47;87.20;59886.41;5017647;28;20385;-67
2022/12/15 09:41:16;;;;;;;26.60;12.45;;;;;;;-144.47;87.24;59850.59;5028840;28;20246;-67
2022/12/15 09:43:51;;;;;;;21.92;12.25;;;;;;;-144.47;86.56;59808.78;5014986;28;20029;-69
2022/12/15 09:46:33;;;;;;;23.63;11.82;;;;;;;-144.47;86.55;59836.66;5008452;28;20419;-67
2022/12/15 09:49:03;;;;;;;24.45;10.73;;;;;;;-144.47;86.25;59856.56;5005586;28;20564;-66
2022/12/15 09:51:35;;;;;;;24.48;12.43;;;;;;;-144.47;86.08;59812.78;5009404;28;20034;-70
2022/12/15 09:54:00;;;;;;;23.00;11.55;;;;;;;-144.47;85.55;59806.78;5008903;28;20032;-67
2022/12/15 09:56:54;;;;;;;28.02;12.93;;;;;;;-144.47;84.78;59810.78;5010013;28;20080;-70
2022/12/15 09:59:23;;;;;;;29.95;10.18;;;;;;;-144.47;84.83;59818.75;5009910;28;20029;-69
2022/12/15 10:01:49;;;;;;;;;;;;;;;-144.47;84.51;59794.84;5011834;28;20448;-68
2022/12/15 10:04:29;;;;;;;25.33;10.32;;;;;;;-144.47;84.10;59761.03;5008757;28;20013;-68
2022/12/15 10:07:11;;;;;;;23.08;10.85;;;;;;;-144.47;83.80;59798.84;5012938;28;20087;-71
2022/12/15 10:09:37;;;;;;;24.02;10.35;;;;;;;-144.47;83.61;59782.91;5027472;28;20034;-69
2022/12/15 10:12:12;;;;;;;17.58;10.02;;;;;;;-144.47;83.07;59812.78;5007110;28;20029;-70
2022/12/15 10:14:40;;;;;;;25.30;11.27;;;;;;;-144.47;82.80;59816.75;4999585;28;20022;-71
2022/12/15 10:17:27;;;;;;;21.00;10.68;;;;;;;-144.47;83.20;59788.88;5021171;28;20038;-68
2022/12/15 10:20:13;;;;;;;25.77;12.75;;;;;;;-144.47;83.54;59778.94;5022541;28;20250;-71
2022/12/15 10:22:38;;;;;;;17.30;9.68;;;;;;;-144.47;83.12;59707.28;5024202;28;20057;-69
2022/12/15 10:25:16;;;;;;;23.38;11.20;;;;;;;-144.47;82.86;59691.38;5022243;28;20045;-70
2022/12/15 10:27:47;;;;;;;23.23;11.32;;;;;;;-144.47;81.79;59631.66;4999928;28;20106;-70
2022/12/15 10:30:14;;;;;;;25.70;11.50;;;;;;;-144.47;81.17;59623.69;5005789;28;20136;-69
2022/12/15 10:33:16;;;;;;;26.83;11.82;;;;;;;-144.47;80.85;59623.69;5009206;28;20038;-69
2022/12/15 10:35:42;;;;;;;25.00;12.30;;;;;;;-144.47;80.40;59657.53;5009623;28;20034;-71
2022/12/15 10:38:33;;;;;;;31.30;12.27;;;;;;;-144.47;79.57;59631.66;5006940;28;20101;-71
2022/12/15 10:41:01;;;;;;;26.10;10.55;;;;;;;-144.47;79.31;59603.81;5009234;28;20252;-70
2022/12/15 10:43:32;;;;;;;33.72;12.38;;;;;;;-144.47;78.97;59667.50;5008530;28;20022;-67
2022/12/15 10:46:00;;;;;;;19.67;9.43;;;;;;;-144.47;78.11;59731.16;5014727;28;20505;-71
2022/12/15 10:48:26;;;;;;;24.35;11.50;;;;;;;-144.47;78.58;59707.28;5012739;28;20089;-68
2022/12/15 10:51:07;;;;;;;26.98;12.00;;;;;;;-144.47;78.89;59711.28;5009627;28;20036;-68
2022/12/15 10:53:42;;;;;;;21.50;11.30;;;;;;;-144.47;78.25;59663.50;5008961;28;20133;-67
2022/12/15 10:56:08;;;;;;;25.50;11.50;;;;;;;-144.47;79.03;59641.63;5010070;28;20038;-72
2022/12/15 10:58:50;;;;;;;29.55;11.30;;;;;;;-144.47;79.11;59695.34;5008447;28;20034;-67
2022/12/15 11:01:22;;;;;;;27.70;12.57;;;;;;;-144.47;79.04;59679.44;5014898;28;20109;-67
2022/12/15 11:03:51;;;;;;;32.53;12.93;;;;;;;-144.47;79.35;59683.41;5012753;28;20853;-71
2022/12/15 11:06:40;;;;;;;25.85;12.00;;;;;;;-144.47;80.07;59665.50;5018484;28;20022;-69
2022/12/15 11:09:35;;;;;;;26.48;12.50;;;;;;;-144.47;78.97;59669.47;5022437;28;20029;-72
2022/12/15 11:15:21;;;;;;;28.02;11.85;;;;;;;-144.47;79.04;59685.41;5014322;28;20064;-67
2022/12/15 11:18:11;;;;;;;23.27;10.85;;;;;;;-144.47;79.23;59687.38;5019105;28;20042;-72
2022/12/15 11:20:41;;;;;;;24.58;11.60;;;;;;;-144.47;78.91;59677.44;5022525;28;20149;-70
2022/12/15 11:23:15;;;;;;;26.58;11.05;;;;;;;-144.47;77.79;59671.47;5012698;28;20026;-71
2022/12/15 11:26:03;;;;;;;20.50;11.05;;;;;;;-144.47;82.12;59719.22;5021813;28;20045;-71
2022/12/15 11:28:37;;;;;;;54.97;20.95;;;;;;;-144.47;87.77;59834.66;5006218;28;20041;-70
2022/12/15 11:31:18;;;;;;;37.67;16.55;;;;;;;-144.47;83.67;59774.97;5021199;28;20080;-71
2022/12/15 11:33:44;;;;;;;42.22;17.67;;;;;;;-144.47;80.74;59772.97;5019473;28;20531;-72
2022/12/15 11:36:18;;;;;;;32.42;13.07;;;;;;;-144.47;78.72;59725.19;5019248;28;20562;-67
2022/12/15 11:38:58;;;;;;;39.97;16.33;;;;;;;-144.47;79.56;59719.22;5020209;28;20156;-70
2022/12/15 11:41:27;;;;;;;61.65;14.15;;;;;;;-144.47;76.70;59701.31;5023047;28;20032;-71
2022/12/15 11:44:04;;;;;;;22.40;10.48;;;;;;;-144.47;75.72;59649.56;5020345;28;20029;-68
2022/12/15 11:46:38;;;;;;;32.05;12.98;;;;;;;-144.47;75.67;59637.63;5014868;28;20132;-69
2022/12/15 11:49:25;;;;;;;88.07;25.40;;;;;;;-144.47;75.31;59633.66;5012372;28;20096;-71
2022/12/15 11:52:01;;;;;;;86.15;22.67;;;;;;;-144.47;73.94;59635.66;5013114;28;20041;-69
2022/12/15 11:54:29;;;;;;;31.20;12.60;;;;;;;-144.47;73.81;59641.63;5012054;28;20393;-71
2022/12/15 11:57:01;;;;;;;29.83;11.93;;;;;;;-144.47;74.07;59637.63;5011280;28;20064;-70
2022/12/15 11:59:48;;;;;;;24.23;10.70;;;;;;;-144.47;73.82;59621.72;5009807;28;20036;-70
2022/12/15 12:02:52;;;;;;;29.35;11.02;;;;;;;-144.47;74.61;59609.78;5010890;28;20116;-69
2022/12/15 12:06:00;;;;;;;25.33;11.13;;;;;;;-144.47;75.41;59609.78;4950798;28;20150;-68
2022/12/15 12:09:02;;;;;;;29.05;11.70;;;;;;;-144.47;75.49;59655.53;4920805;29;20043;-70
2022/12/15 12:11:43;;;;;;;44.55;12.13;;;;;;;-144.47;74.89;59641.63;5001765;28;20053;-70
2022/12/15 12:14:17;;;;;;;33.25;12.55;;;;;;;-144.47;74.39;59566.00;5009926;28;20400;-70
2022/12/15 12:16:52;;;;;;;54.35;15.45;;;;;;;-144.47;74.54;59619.72;5011848;28;20033;-71
2022/12/15 12:19:44;;;;;;;35.22;12.60;;;;;;;-144.47;74.32;59597.84;5010834;28;20105;-70
2022/12/15 12:22:40;;;;;;;28.17;13.05;;;;;;;-144.47;73.69;59595.84;5012223;28;20137;-69
2022/12/15 12:25:24;;;;;;;23.92;10.82;;;;;;;-144.47;74.04;59589.88;5011416;28;20050;-72
2022/12/15 12:27:58;;;;;;;52.92;14.95;;;;;;;-144.47;74.14;59562.00;4995603;28;20054;-70
2022/12/15 12:30:28;;;;;;;28.13;12.45;;;;;;;-144.47;74.07;59591.84;5023583;28;20030;-69
2022/12/15 12:33:13;;;;;;;26.80;11.30;;;;;;;-144.47;73.37;59564.00;5011865;28;20507;-71
2022/12/15 12:36:06;;;;;;;29.75;10.38;;;;;;;-144.47;73.46;59560.03;4998051;28;20115;-68
2022/12/15 12:38:37;;;;;;;25.35;11.07;;;;;;;-144.47;72.80;59558.03;5005289;28;20042;-70
2022/12/15 12:41:20;;;;;;;28.30;12.65;;;;;;;-144.47;72.81;59514.25;5010338;28;20029;-68
2022/12/15 12:43:51;;;;;;;33.15;13.00;;;;;;;-144.47;73.42;59500.31;5010278;28;20057;-69
2022/12/15 12:46:16;;;;;;;23.73;11.63;;;;;;;-144.47;72.75;59492.34;5010331;28;20580;-68
2022/12/15 12:48:50;;;;;;;25.88;9.93;;;;;;;-144.47;72.53;59494.34;5010652;28;20068;-69
2022/12/15 12:51:15;;;;;;;26.35;10.48;;;;;;;-144.47;72.12;59476.44;5011709;28;20689;-69
2022/12/15 12:53:40;;;;;;;23.25;10.15;;;;;;;-144.47;71.66;59456.53;5010125;28;20110;-69
2022/12/15 12:56:06;;;;;;;28.13;11.57;;;;;;;-144.47;71.39;59472.47;5010243;28;20046;-68
2022/12/15 12:58:41;;;;;;;26.90;10.23;;;;;;;-144.47;71.39;59414.75;5007579;28;20052;-69
2022/12/15 13:01:09;;;;;;;37.72;12.00;;;;;;;-144.47;71.46;59444.59;5009000;28;20034;-68
2022/12/15 13:03:38;;;;;;;36.33;12.43;;;;;;;-144.47;70.99;59460.53;5012992;28;20104;-70
2022/12/15 13:06:38;;;;;;;26.08;9.90;;;;;;;-144.47;71.18;59406.78;5014071;28;20033;-71
2022/12/15 13:09:41;;;;;;;39.53;15.77;;;;;;;-144.47;71.41;59370.97;5012971;28;20036;-69
2022/12/15 13:12:43;;;;;;;21.70;11.20;;;;;;;-144.47;70.37;59351.06;4996403;28;20044;-68
2022/12/15 13:15:28;;;;;;;24.40;11.70;;;;;;;-144.47;69.36;59361.00;5011119;28;20021;-71
2022/12/15 13:17:58;;;;;;;40.85;15.43;;;;;;;-144.47;69.64;59327.19;5008514;28;20409;-67
2022/12/15 13:20:26;;;;;;;43.47;18.83;;;;;;;-144.47;69.30;59329.19;5009322;28;20026;-69
2022/12/15 13:22:53;;;;;;;32.50;14.95;;;;;;;-144.47;69.00;59323.22;5009987;28;20018;-70
2022/12/15 13:25:34;;;;;;;37.42;14.23;;;;;;;-144.47;68.79;59347.09;5010624;28;20042;-70
2022/12/15 13:28:15;;;;;;;27.05;13.10;;;;;;;-144.47;68.03;59295.34;5016682;28;20029;-68
2022/12/15 13:31:12;;;;;;;48.25;17.98;;;;;;;-144.47;67.57;59325.19;5019802;28;20037;-71
2022/12/15 13:33:49;;;;;;;20.42;9.95;;;;;;;-144.47;66.97;59321.22;5008605;28;20037;-71
2022/12/15 13:36:37;;;;;;;23.40;11.05;;;;;;;-144.47;66.67;59309.28;5021650;28;20053;-68
2022/12/15 13:39:02;;;;;;;24.73;10.65;;;;;;;-144.47;66.14;59293.34;5021356;28;20486;-69
2022/12/15 13:41:27;;;;;;;30.55;11.48;;;;;;;-144.47;65.62;59297.34;5023281;28;20026;-66